createdAt,value
2023-05-21T00:01:45.573Z,17.22
2023-05-21T00:06:04.107Z,17.22
2023-05-21T00:10:22.089Z,17.28
2023-05-21T00:14:42.124Z,17.29
2023-05-21T00:19:00.040Z,17.26
2023-05-21T00:23:18.906Z,17.28
2023-05-21T00:27:38.004Z,17.26
2023-05-21T00:31:58.600Z,17.25
2023-05-21T00:36:17.138Z,17.31
2023-05-21T00:40:37.703Z,17.29
2023-05-21T00:44:55.798Z,17.28
2023-05-21T00:49:15.160Z,17.30
2023-05-21T00:53:36.103Z,17.29
2023-05-21T00:57:54.976Z,17.32
2023-05-21T01:02:14.452Z,17.23
2023-05-21T01:06:35.526Z,17.30
2023-05-21T01:10:55.661Z,17.30
2023-05-21T01:15:15.082Z,17.28
2023-05-21T01:19:37.512Z,17.34
2023-05-21T01:23:55.901Z,17.32
2023-05-21T01:28:15.420Z,17.33
2023-05-21T01:32:56.884Z,17.26
2023-05-21T01:37:33.599Z,17.22
2023-05-21T01:41:55.449Z,17.25
2023-05-21T01:46:17.928Z,17.30
2023-05-21T01:50:41.419Z,17.22
2023-05-21T01:55:00.410Z,17.28
2023-05-21T01:59:20.053Z,17.24
2023-05-21T02:03:38.716Z,17.27
2023-05-21T02:07:57.344Z,17.26
2023-05-21T02:12:15.031Z,17.21
2023-05-21T02:16:33.668Z,17.24
2023-05-21T02:20:51.341Z,17.23
2023-05-21T02:25:11.446Z,17.18
2023-05-21T02:29:30.472Z,17.25
2023-05-21T02:33:49.139Z,17.25
2023-05-21T02:38:09.361Z,17.25
2023-05-21T02:42:27.463Z,17.22
2023-05-21T02:46:45.488Z,17.20
2023-05-21T02:51:05.359Z,17.25
2023-05-21T02:55:23.698Z,17.22
2023-05-21T02:59:41.198Z,17.20
2023-05-21T03:03:59.759Z,17.28
2023-05-21T03:08:17.929Z,17.23
2023-05-21T03:12:35.451Z,17.28
2023-05-21T03:16:53.540Z,17.26
2023-05-21T03:21:13.844Z,17.24
2023-05-21T03:25:33.360Z,17.36
2023-05-21T03:29:52.098Z,17.28
2023-05-21T03:34:09.948Z,17.33
2023-05-21T03:38:27.532Z,17.31
2023-05-21T03:42:45.573Z,17.32
2023-05-21T03:47:03.115Z,17.31
2023-05-21T03:51:22.305Z,17.36
2023-05-21T03:55:41.478Z,17.38
2023-05-21T04:00:02.874Z,17.34
2023-05-21T04:04:21.523Z,17.39
2023-05-21T04:08:40.374Z,17.38
2023-05-21T04:12:58.470Z,17.34
2023-05-21T04:17:15.989Z,17.43
2023-05-21T04:21:35.124Z,17.47
2023-05-21T04:25:53.692Z,17.42
2023-05-21T04:30:12.097Z,17.39
2023-05-21T04:34:31.021Z,17.39
2023-05-21T04:38:49.181Z,17.45
2023-05-21T04:43:06.639Z,17.42
2023-05-21T04:47:25.606Z,17.36
2023-05-21T04:51:43.831Z,17.43
2023-05-21T04:56:01.736Z,17.39
2023-05-21T05:00:19.914Z,17.39
2023-05-21T05:04:39.413Z,17.35
2023-05-21T05:08:57.778Z,17.47
2023-05-21T05:13:15.349Z,17.51
2023-05-21T05:17:36.231Z,17.48
2023-05-21T05:21:55.658Z,17.37
2023-05-21T05:26:13.214Z,17.36
2023-05-21T05:30:32.225Z,17.44
2023-05-21T05:34:50.056Z,17.48
2023-05-21T05:39:08.184Z,17.44
2023-05-21T05:43:26.603Z,17.44
2023-05-21T05:47:45.618Z,17.43
2023-05-21T05:52:05.707Z,17.45
2023-05-21T05:56:23.775Z,17.38
2023-05-21T06:00:41.665Z,17.44
2023-05-21T06:04:59.457Z,17.47
2023-05-21T06:09:17.037Z,17.56
2023-05-21T06:13:35.032Z,17.48
2023-05-21T06:17:52.639Z,17.46
2023-05-21T06:22:10.723Z,17.49
2023-05-21T06:26:30.068Z,17.54
2023-05-21T06:30:49.487Z,17.51
2023-05-21T06:35:07.437Z,17.59
2023-05-21T06:39:25.656Z,17.55
2023-05-21T06:43:43.226Z,17.54
2023-05-21T06:48:01.991Z,17.57
2023-05-21T06:52:20.084Z,17.57
2023-05-21T06:56:37.702Z,17.62
2023-05-21T07:00:55.302Z,17.54
2023-05-21T07:05:13.367Z,17.63
2023-05-21T07:09:31.292Z,17.51
2023-05-21T07:13:49.168Z,17.55
2023-05-21T07:18:08.270Z,17.62
2023-05-21T07:22:27.954Z,17.59
2023-05-21T07:26:48.066Z,17.67
2023-05-21T07:31:06.068Z,17.63
2023-05-21T07:35:24.322Z,17.59
2023-05-21T07:39:42.370Z,17.64
2023-05-21T07:44:01.880Z,17.68
2023-05-21T07:48:23.685Z,17.68
2023-05-21T07:52:41.321Z,17.71
2023-05-21T07:56:59.951Z,17.69
2023-05-21T08:01:17.540Z,17.73
2023-05-21T08:05:35.753Z,17.64
2023-05-21T08:09:54.870Z,17.74
2023-05-21T08:14:12.466Z,17.72
2023-05-21T08:18:30.687Z,17.63
2023-05-21T08:22:48.553Z,17.73
2023-05-21T08:27:06.252Z,17.73
2023-05-21T08:31:24.043Z,17.72
2023-05-21T08:35:41.802Z,17.78
2023-05-21T08:39:59.909Z,17.75
2023-05-21T08:44:22.913Z,17.79
2023-05-21T08:48:40.922Z,17.81
2023-05-21T08:53:00.568Z,17.83
2023-05-21T08:57:21.329Z,17.93
2023-05-21T09:01:42.863Z,17.93
2023-05-21T09:06:00.891Z,17.96
2023-05-21T09:10:22.628Z,17.95
2023-05-21T09:14:42.652Z,18.00
2023-05-21T09:19:03.010Z,17.95
2023-05-21T09:23:22.807Z,17.94
2023-05-21T09:27:41.545Z,18.03
2023-05-21T09:32:05.990Z,18.16
2023-05-21T09:36:25.778Z,18.13
2023-05-21T09:40:48.850Z,18.24
2023-05-21T09:45:11.349Z,18.28
2023-05-21T09:49:29.880Z,18.41
2023-05-21T09:53:55.920Z,18.46
2023-05-21T09:58:14.672Z,18.61
2023-05-21T10:02:34.143Z,18.60
2023-05-21T10:06:53.033Z,18.64
2023-05-21T10:11:13.037Z,18.72
2023-05-21T10:15:38.884Z,18.71
2023-05-21T10:19:58.182Z,18.80
2023-05-21T10:24:17.085Z,18.84
2023-05-21T10:28:39.239Z,18.87
2023-05-21T10:32:58.220Z,18.89
2023-05-21T10:37:17.391Z,19.01
2023-05-21T10:41:53.754Z,19.21
2023-05-21T10:46:54.866Z,19.21
2023-05-21T10:51:26.845Z,19.40
2023-05-21T10:56:29.635Z,19.50
2023-05-21T11:00:47.849Z,20.21
2023-05-21T11:05:08.203Z,23.64
2023-05-21T11:09:27.848Z,24.59
2023-05-21T11:13:50.685Z,25.18
2023-05-21T11:18:10.375Z,25.38
2023-05-21T11:22:28.441Z,25.84
2023-05-21T11:26:49.066Z,26.15
2023-05-21T11:31:27.820Z,26.37
2023-05-21T11:35:46.496Z,26.61
2023-05-21T11:40:26.439Z,27.08
2023-05-21T11:44:48.734Z,26.75
2023-05-21T11:49:06.938Z,27.35
2023-05-21T11:53:30.656Z,27.31
2023-05-21T11:57:54.262Z,27.66
2023-05-21T12:02:17.146Z,27.58
2023-05-21T12:06:34.877Z,27.64
2023-05-21T12:11:00.564Z,27.94
2023-05-21T12:15:18.649Z,28.12
2023-05-21T12:19:38.048Z,28.01
2023-05-21T12:23:56.519Z,28.03
2023-05-21T12:28:14.370Z,27.97
2023-05-21T12:32:33.336Z,28.02
2023-05-21T12:36:52.755Z,28.12
2023-05-21T12:41:13.754Z,27.98
2023-05-21T12:45:33.158Z,27.92
2023-05-21T12:49:59.637Z,27.48
2023-05-21T12:54:18.300Z,27.39
2023-05-21T12:58:35.870Z,27.88
2023-05-21T13:02:54.611Z,27.62
2023-05-21T13:07:12.203Z,27.85
2023-05-21T13:11:30.092Z,27.49
2023-05-21T13:15:47.803Z,27.18
2023-05-21T13:20:13.430Z,25.81
2023-05-21T13:24:31.555Z,24.52
2023-05-21T13:28:49.152Z,27.02
2023-05-21T13:33:08.613Z,27.20
2023-05-21T13:37:26.358Z,27.18
2023-05-21T13:41:44.748Z,27.27
2023-05-21T13:46:03.156Z,26.69
2023-05-21T13:50:21.226Z,26.51
2023-05-21T13:54:38.806Z,26.38
2023-05-21T13:58:56.668Z,26.37
2023-05-21T14:07:32.707Z,26.15
2023-05-21T14:11:51.048Z,25.44
2023-05-21T14:16:09.154Z,23.52
2023-05-21T14:20:26.720Z,21.57
2023-05-21T14:24:45.829Z,21.07
2023-05-21T14:29:03.412Z,20.99
2023-05-21T14:33:22.013Z,20.65
2023-05-21T14:37:39.763Z,20.38
2023-05-21T14:41:59.210Z,20.25
2023-05-21T14:46:16.986Z,20.23
2023-05-21T14:50:36.709Z,20.18
2023-05-21T14:54:54.678Z,19.94
2023-05-21T14:59:13.136Z,19.94
2023-05-21T15:03:31.102Z,19.97
2023-05-21T15:07:48.997Z,19.81
2023-05-21T15:12:07.660Z,19.69
2023-05-21T15:16:25.447Z,19.70
2023-05-21T15:20:43.408Z,19.67
2023-05-21T15:25:01.759Z,19.64
2023-05-21T15:29:20.890Z,19.63
2023-05-21T15:33:38.623Z,19.67
2023-05-21T15:37:56.267Z,19.67
2023-05-21T15:42:15.191Z,19.61
2023-05-21T15:46:33.166Z,19.61
2023-05-21T15:50:50.938Z,19.48
2023-05-21T15:55:09.455Z,19.59
2023-05-21T15:59:28.448Z,19.50
2023-05-21T16:03:46.786Z,19.54
2023-05-21T16:08:05.440Z,19.38
2023-05-21T16:12:23.309Z,19.32
2023-05-21T16:16:41.698Z,19.32
2023-05-21T16:21:00.257Z,19.33
2023-05-21T16:25:20.587Z,19.32
2023-05-21T16:29:40.988Z,19.31
2023-05-21T16:33:58.785Z,19.20
2023-05-21T16:38:17.298Z,19.11
2023-05-21T16:42:40.055Z,19.02
2023-05-21T16:46:58.264Z,18.94
2023-05-21T16:51:16.650Z,18.93
2023-05-21T16:55:36.610Z,18.88
2023-05-21T16:59:54.468Z,18.79
2023-05-21T17:04:12.434Z,18.79
2023-05-21T17:08:30.916Z,18.81
2023-05-21T17:12:48.673Z,18.73
2023-05-21T17:17:10.557Z,18.75
2023-05-21T17:21:28.144Z,18.76
2023-05-21T17:25:46.594Z,18.69
2023-05-21T17:30:10.248Z,18.60
2023-05-21T17:34:35.822Z,18.57
2023-05-21T17:38:54.899Z,18.42
2023-05-21T17:43:12.838Z,18.44
2023-05-21T17:47:31.173Z,18.38
2023-05-21T17:51:50.952Z,18.34
2023-05-21T17:56:11.599Z,18.31
2023-05-21T18:00:35.446Z,18.26
2023-05-21T18:04:53.379Z,18.23
2023-05-21T18:09:14.445Z,18.21
2023-05-21T18:13:35.593Z,18.16
2023-05-21T18:17:55.993Z,18.11
2023-05-21T18:22:14.472Z,18.13
2023-05-21T18:26:32.182Z,18.17
2023-05-21T18:30:50.091Z,18.07
2023-05-21T18:35:12.412Z,18.05
2023-05-21T18:39:32.254Z,18.08
2023-05-21T18:43:52.963Z,18.15
2023-05-21T18:48:12.059Z,18.03
2023-05-21T18:52:41.840Z,17.99
2023-05-21T18:57:00.993Z,18.00
2023-05-21T19:01:18.713Z,17.90
2023-05-21T19:05:38.285Z,18.04
2023-05-21T19:09:56.442Z,17.98
2023-05-21T19:14:13.996Z,17.98
2023-05-21T19:18:33.027Z,17.93
2023-05-21T19:22:51.256Z,17.93
2023-05-21T19:27:12.720Z,17.93
2023-05-21T19:31:34.832Z,17.92
2023-05-21T19:35:53.546Z,17.98
2023-05-21T19:40:12.164Z,17.96
2023-05-21T19:44:30.549Z,17.91
2023-05-21T19:48:49.154Z,17.91
2023-05-21T19:53:08.464Z,17.92
2023-05-21T19:57:26.544Z,18.01
2023-05-21T20:01:45.702Z,17.93
2023-05-21T20:06:03.925Z,17.90
2023-05-21T20:10:22.025Z,17.93
2023-05-21T20:14:39.464Z,17.95
2023-05-21T20:18:58.563Z,17.88
2023-05-21T20:23:16.941Z,17.90
2023-05-21T20:27:39.103Z,17.93
2023-05-21T20:31:57.029Z,17.94
2023-05-21T20:36:15.525Z,17.85
2023-05-21T20:40:33.163Z,17.82
2023-05-21T20:44:53.066Z,17.83
2023-05-21T20:49:10.762Z,17.92
2023-05-21T20:53:28.462Z,17.90
2023-05-21T20:57:46.477Z,17.84
2023-05-21T21:02:06.160Z,17.91
2023-05-21T21:06:26.264Z,17.84
2023-05-21T21:10:48.516Z,17.83
2023-05-21T21:15:07.986Z,17.85
2023-05-21T21:19:26.148Z,17.82
2023-05-21T21:23:43.925Z,17.88
2023-05-21T21:28:02.359Z,17.72
2023-05-21T21:32:20.581Z,17.74
2023-05-21T21:36:39.951Z,17.76
2023-05-21T21:40:57.569Z,17.79
2023-05-21T21:45:16.884Z,17.78
2023-05-21T21:49:34.596Z,17.71
2023-05-21T21:53:52.981Z,17.69
2023-05-21T21:58:11.260Z,17.69
2023-05-21T22:02:28.817Z,17.69
2023-05-21T22:06:47.420Z,17.68
2023-05-21T22:11:06.771Z,17.71
2023-05-21T22:15:26.314Z,17.64
2023-05-21T22:19:44.257Z,17.68
2023-05-21T22:24:02.530Z,17.64
2023-05-21T22:28:23.350Z,17.63
2023-05-21T22:32:41.232Z,17.65
2023-05-21T22:36:59.438Z,17.62
2023-05-21T22:41:17.152Z,17.61
2023-05-21T22:45:37.313Z,17.54
2023-05-21T22:49:56.092Z,17.56
2023-05-21T22:54:14.994Z,17.55
2023-05-21T22:58:32.596Z,17.58
2023-05-21T23:02:53.846Z,17.53
2023-05-21T23:07:13.147Z,17.51
2023-05-21T23:11:31.171Z,17.49
2023-05-21T23:15:48.892Z,17.47
2023-05-21T23:20:11.463Z,17.47
2023-05-21T23:24:30.882Z,17.47
2023-05-21T23:28:48.895Z,17.43
2023-05-21T23:33:08.535Z,17.41
2023-05-21T23:37:27.047Z,17.43
2023-05-21T23:41:45.273Z,17.40
2023-05-21T23:46:03.455Z,17.39
2023-05-21T23:50:22.178Z,17.41
2023-05-21T23:54:39.774Z,17.44
2023-05-21T23:58:58.094Z,17.40
